sensor_id;sensor_type;location;lat;lon;timestamp;pressure;altitude;pressure_sealevel;temperature;humidity
55470;BME280;41334;47.872;16.384;2024-03-02T00:02:09;98227.34;;;3.88;68.74
55470;BME280;41334;47.872;16.384;2024-03-02T00:07:14;98227.03;;;3.81;68.41
55470;BME280;41334;47.872;16.384;2024-03-02T00:12:16;98226.88;;;3.78;68.23
55470;BME280;41334;47.872;16.384;2024-03-02T00:17:24;98223.78;;;3.70;68.43
55470;BME280;41334;47.872;16.384;2024-03-02T00:22:29;98216.16;;;3.59;68.84
55470;BME280;41334;47.872;16.384;2024-03-02T00:27:31;98220.66;;;3.46;68.95
55470;BME280;41334;47.872;16.384;2024-03-02T00:32:34;98216.78;;;3.38;69.29
55470;BME280;41334;47.872;16.384;2024-03-02T00:37:36;98221.31;;;3.34;68.96
55470;BME280;41334;47.872;16.384;2024-03-02T00:42:38;98226.47;;;3.27;68.75
55470;BME280;41334;47.872;16.384;2024-03-02T00:47:41;98220.50;;;3.34;68.46
55470;BME280;41334;47.872;16.384;2024-03-02T00:52:44;98218.22;;;3.27;69.36
55470;BME280;41334;47.872;16.384;2024-03-02T00:57:46;98220.97;;;3.27;69.51
55470;BME280;41334;47.872;16.384;2024-03-02T01:02:48;98226.94;;;3.21;69.50
55470;BME280;41334;47.872;16.384;2024-03-02T01:07:52;98218.38;;;3.31;69.71
55470;BME280;41334;47.872;16.384;2024-03-02T01:12:54;98225.03;;;3.47;69.70
55470;BME280;41334;47.872;16.384;2024-03-02T01:17:56;98217.09;;;3.45;69.53
55470;BME280;41334;47.872;16.384;2024-03-02T01:22:59;98219.03;;;3.36;69.03
55470;BME280;41334;47.872;16.384;2024-03-02T01:28:01;98225.50;;;3.32;67.65
55470;BME280;41334;47.872;16.384;2024-03-02T01:33:05;98233.06;;;3.09;66.88
55470;BME280;41334;47.872;16.384;2024-03-02T01:38:07;98214.06;;;2.99;66.25
55470;BME280;41334;47.872;16.384;2024-03-02T01:43:09;98213.59;;;2.97;65.82
55470;BME280;41334;47.872;16.384;2024-03-02T01:48:11;98205.59;;;2.86;65.48
55470;BME280;41334;47.872;16.384;2024-03-02T01:53:13;98214.50;;;2.83;65.66
55470;BME280;41334;47.872;16.384;2024-03-02T01:58:15;68747.22;;;-151.47;100.00
55470;BME280;41334;47.872;16.384;2024-03-02T02:03:17;68747.22;;;-151.47;100.00
55470;BME280;41334;47.872;16.384;2024-03-02T02:08:19;68747.22;;;-151.47;100.00
55470;BME280;41334;47.872;16.384;2024-03-02T02:13:21;68747.22;;;-151.47;100.00
55470;BME280;41334;47.872;16.384;2024-03-02T02:18:23;68747.22;;;-151.47;100.00
55470;BME280;41334;47.872;16.384;2024-03-02T02:23:26;68747.22;;;-151.47;100.00
55470;BME280;41334;47.872;16.384;2024-03-02T02:28:28;68747.22;;;-151.47;100.00
55470;BME280;41334;47.872;16.384;2024-03-02T02:33:30;68747.22;;;-151.47;100.00
55470;BME280;41334;47.872;16.384;2024-03-02T02:38:41;68747.22;;;-151.47;100.00
55470;BME280;41334;47.872;16.384;2024-03-02T02:43:44;68747.22;;;-151.47;100.00
55470;BME280;41334;47.872;16.384;2024-03-02T02:48:46;68747.22;;;-151.47;100.00
55470;BME280;41334;47.872;16.384;2024-03-02T02:53:48;68747.22;;;-151.47;100.00
55470;BME280;41334;47.872;16.384;2024-03-02T02:58:50;68747.22;;;-151.47;100.00
55470;BME280;41334;47.872;16.384;2024-03-02T03:03:52;68747.22;;;-151.47;100.00
55470;BME280;41334;47.872;16.384;2024-03-02T03:08:54;68747.22;;;-151.47;100.00
55470;BME280;41334;47.872;16.384;2024-03-02T03:13:56;68747.22;;;-151.47;100.00
55470;BME280;41334;47.872;16.384;2024-03-02T03:18:58;98214.50;;;2.83;65.66
55470;BME280;41334;47.872;16.384;2024-03-02T03:24:00;98173.41;;;2.96;68.29
55470;BME280;41334;47.872;16.384;2024-03-02T03:29:02;98175.38;;;3.04;67.85
55470;BME280;41334;47.872;16.384;2024-03-02T03:34:04;98176.16;;;2.96;67.27
55470;BME280;41334;47.872;16.384;2024-03-02T03:39:06;98171.38;;;2.79;68.11
55470;BME280;41334;47.872;16.384;2024-03-02T03:44:09;98177.75;;;2.79;67.98
55470;BME280;41334;47.872;16.384;2024-03-02T03:49:11;98171.25;;;2.75;67.80
55470;BME280;41334;47.872;16.384;2024-03-02T03:54:14;98175.69;;;2.62;68.07
55470;BME280;41334;47.872;16.384;2024-03-02T03:59:16;98168.06;;;2.51;67.75
55470;BME280;41334;47.872;16.384;2024-03-02T04:04:18;98185.69;;;2.50;67.26
55470;BME280;41334;47.872;16.384;2024-03-02T04:09:20;98176.19;;;2.33;67.28
55470;BME280;41334;47.872;16.384;2024-03-02T04:14:22;98193.63;;;2.29;67.46
55470;BME280;41334;47.872;16.384;2024-03-02T04:19:24;98194.72;;;2.42;68.64
55470;BME280;41334;47.872;16.384;2024-03-02T04:24:26;98200.31;;;2.59;69.69
55470;BME280;41334;47.872;16.384;2024-03-02T04:29:28;98195.88;;;2.89;69.97
55470;BME280;41334;47.872;16.384;2024-03-02T04:34:30;98206.66;;;3.08;69.71
55470;BME280;41334;47.872;16.384;2024-03-02T04:39:32;98215.59;;;3.31;69.19
55470;BME280;41334;47.872;16.384;2024-03-02T04:44:36;98212.56;;;3.41;69.45
55470;BME280;41334;47.872;16.384;2024-03-02T04:49:39;98222.78;;;3.49;70.08
55470;BME280;41334;47.872;16.384;2024-03-02T04:54:42;98211.63;;;3.54;69.95
55470;BME280;41334;47.872;16.384;2024-03-02T05:00:02;98218.09;;;3.67;69.58
55470;BME280;41334;47.872;16.384;2024-03-02T05:05:09;98219.09;;;3.71;68.80
55470;BME280;41334;47.872;16.384;2024-03-02T05:10:11;98231.09;;;3.75;69.06
55470;BME280;41334;47.872;16.384;2024-03-02T05:15:14;98226.53;;;3.79;68.81
55470;BME280;41334;47.872;16.384;2024-03-02T05:20:17;98231.22;;;3.79;68.16
55470;BME280;41334;47.872;16.384;2024-03-02T05:25:19;98239.50;;;3.79;68.31
55470;BME280;41334;47.872;16.384;2024-03-02T05:30:21;98235.59;;;3.80;68.29
55470;BME280;41334;47.872;16.384;2024-03-02T05:35:23;98237.56;;;3.88;67.96
55470;BME280;41334;47.872;16.384;2024-03-02T05:40:25;98241.78;;;3.94;67.24
55470;BME280;41334;47.872;16.384;2024-03-02T05:45:27;98260.78;;;4.04;67.57
55470;BME280;41334;47.872;16.384;2024-03-02T05:50:29;98258.19;;;4.08;67.47
55470;BME280;41334;47.872;16.384;2024-03-02T05:55:31;98249.56;;;4.01;67.54
55470;BME280;41334;47.872;16.384;2024-03-02T06:00:33;98259.47;;;3.84;68.95
55470;BME280;41334;47.872;16.384;2024-03-02T06:05:36;98277.16;;;3.92;68.87
55470;BME280;41334;47.872;16.384;2024-03-02T06:10:38;98282.53;;;3.97;67.83
55470;BME280;41334;47.872;16.384;2024-03-02T06:15:40;98283.00;;;4.16;66.04
55470;BME280;41334;47.872;16.384;2024-03-02T06:20:42;98281.88;;;4.17;65.14
55470;BME280;41334;47.872;16.384;2024-03-02T06:25:44;98284.19;;;4.24;64.69
55470;BME280;41334;47.872;16.384;2024-03-02T06:30:46;98279.59;;;4.19;64.24
55470;BME280;41334;47.872;16.384;2024-03-02T06:35:49;98277.69;;;4.29;63.73
55470;BME280;41334;47.872;16.384;2024-03-02T07:49:44;98302.44;;;6.37;61.80
55470;BME280;41334;47.872;16.384;2024-03-02T07:54:47;98303.63;;;6.48;61.47
55470;BME280;41334;47.872;16.384;2024-03-02T07:59:49;98305.28;;;6.62;61.58
55470;BME280;41334;47.872;16.384;2024-03-02T08:04:51;98311.00;;;7.10;60.37
55470;BME280;41334;47.872;16.384;2024-03-02T08:09:53;98309.09;;;7.60;60.79
55470;BME280;41334;47.872;16.384;2024-03-02T08:14:57;98304.56;;;7.92;59.67
55470;BME280;41334;47.872;16.384;2024-03-02T08:20:00;98307.75;;;8.19;58.52
55470;BME280;41334;47.872;16.384;2024-03-02T08:25:04;98300.25;;;8.75;57.10
55470;BME280;41334;47.872;16.384;2024-03-02T08:30:06;98299.94;;;8.77;56.12
55470;BME280;41334;47.872;16.384;2024-03-02T08:35:10;98300.69;;;9.05;55.81
55470;BME280;41334;47.872;16.384;2024-03-02T08:40:12;98296.84;;;9.10;55.53
55470;BME280;41334;47.872;16.384;2024-03-02T08:45:19;98294.59;;;9.15;53.54
55470;BME280;41334;47.872;16.384;2024-03-02T08:50:22;98300.38;;;8.79;55.03
55470;BME280;41334;47.872;16.384;2024-03-02T08:55:24;98292.16;;;8.98;54.53
55470;BME280;41334;47.872;16.384;2024-03-02T09:00:26;98289.94;;;9.19;53.64
55470;BME280;41334;47.872;16.384;2024-03-02T09:05:28;98301.69;;;9.44;52.99
55470;BME280;41334;47.872;16.384;2024-03-02T09:10:30;98302.31;;;9.54;53.90
55470;BME280;41334;47.872;16.384;2024-03-02T09:15:32;98291.00;;;9.94;52.79
55470;BME280;41334;47.872;16.384;2024-03-02T09:20:38;98289.41;;;10.12;52.28
55470;BME280;41334;47.872;16.384;2024-03-02T09:25:40;98286.63;;;10.70;51.71
55470;BME280;41334;47.872;16.384;2024-03-02T09:30:42;98280.78;;;10.75;50.82
55470;BME280;41334;47.872;16.384;2024-03-02T09:35:44;98272.72;;;11.36;48.91
55470;BME280;41334;47.872;16.384;2024-03-02T09:40:47;98279.78;;;11.52;49.50
55470;BME280;41334;47.872;16.384;2024-03-02T09:45:50;98284.56;;;11.75;48.82
55470;BME280;41334;47.872;16.384;2024-03-02T09:50:53;98273.41;;;11.78;48.61
55470;BME280;41334;47.872;16.384;2024-03-02T09:55:55;98272.06;;;12.22;47.65
55470;BME280;41334;47.872;16.384;2024-03-02T10:00:57;98272.16;;;12.63;47.74
55470;BME280;41334;47.872;16.384;2024-03-02T10:06:22;98269.13;;;12.71;48.02
55470;BME280;41334;47.872;16.384;2024-03-02T10:11:33;98266.78;;;12.77;47.40
55470;BME280;41334;47.872;16.384;2024-03-02T10:16:45;98264.13;;;12.57;48.06
55470;BME280;41334;47.872;16.384;2024-03-02T10:21:55;98258.06;;;12.52;48.04
55470;BME280;41334;47.872;16.384;2024-03-02T10:27:06;98254.34;;;13.11;47.00
55470;BME280;41334;47.872;16.384;2024-03-02T10:32:09;98251.97;;;13.14;46.32
55470;BME280;41334;47.872;16.384;2024-03-02T10:37:14;98241.53;;;12.70;46.86
55470;BME280;41334;47.872;16.384;2024-03-02T10:53:19;98233.97;;;12.74;45.90
55470;BME280;41334;47.872;16.384;2024-03-02T10:58:21;98236.94;;;11.94;46.70
55470;BME280;41334;47.872;16.384;2024-03-02T11:03:25;98238.69;;;12.36;46.28
55470;BME280;41334;47.872;16.384;2024-03-02T11:08:28;98230.09;;;12.52;46.98
55470;BME280;41334;47.872;16.384;2024-03-02T11:13:31;98229.81;;;12.61;46.87
55470;BME280;41334;47.872;16.384;2024-03-02T11:18:36;98232.13;;;11.91;47.68
55470;BME280;41334;47.872;16.384;2024-03-02T11:23:38;98229.81;;;12.27;47.65
55470;BME280;41334;47.872;16.384;2024-03-02T11:28:40;98221.22;;;11.83;47.81
55470;BME280;41334;47.872;16.384;2024-03-02T11:33:42;98226.19;;;11.43;49.71
55470;BME280;41334;47.872;16.384;2024-03-02T11:38:45;98223.25;;;11.59;49.98
55470;BME280;41334;47.872;16.384;2024-03-02T11:43:50;98215.09;;;11.24;50.96
55470;BME280;41334;47.872;16.384;2024-03-02T11:48:53;98224.94;;;11.41;50.81
55470;BME280;41334;47.872;16.384;2024-03-02T11:53:58;98218.28;;;11.49;50.61
55470;BME280;41334;47.872;16.384;2024-03-02T11:59:01;98218.25;;;11.72;50.57
55470;BME280;41334;47.872;16.384;2024-03-02T12:04:05;98221.81;;;11.46;51.20
55470;BME280;41334;47.872;16.384;2024-03-02T12:09:09;98221.69;;;11.88;50.41
55470;BME280;41334;47.872;16.384;2024-03-02T12:14:13;98219.53;;;11.78;50.21
55470;BME280;41334;47.872;16.384;2024-03-02T12:19:18;98227.38;;;11.42;51.74
55470;BME280;41334;47.872;16.384;2024-03-02T12:24:22;98217.19;;;11.53;51.26
55470;BME280;41334;47.872;16.384;2024-03-02T12:29:25;98224.09;;;11.14;52.40
55470;BME280;41334;47.872;16.384;2024-03-02T12:34:27;98214.91;;;11.63;51.23
55470;BME280;41334;47.872;16.384;2024-03-02T12:44:54;98206.06;;;10.85;53.63
55470;BME280;41334;47.872;16.384;2024-03-02T12:49:56;98208.13;;;10.68;54.24
55470;BME280;41334;47.872;16.384;2024-03-02T12:55:00;98204.44;;;11.07;53.80
55470;BME280;41334;47.872;16.384;2024-03-02T13:00:05;98203.34;;;11.11;53.31
55470;BME280;41334;47.872;16.384;2024-03-02T13:05:14;98209.00;;;11.41;52.92
55470;BME280;41334;47.872;16.384;2024-03-02T13:10:17;98200.59;;;10.92;54.06
55470;BME280;41334;47.872;16.384;2024-03-02T13:15:20;98196.47;;;11.05;53.91
55470;BME280;41334;47.872;16.384;2024-03-02T13:20:22;98187.47;;;10.92;54.31
55470;BME280;41334;47.872;16.384;2024-03-02T13:25:27;98172.88;;;11.02;54.28
55470;BME280;41334;47.872;16.384;2024-03-02T13:30:31;98192.31;;;10.95;54.43
55470;BME280;41334;47.872;16.384;2024-03-02T13:35:33;98182.75;;;10.73;55.22
55470;BME280;41334;47.872;16.384;2024-03-02T13:40:35;98178.03;;;10.77;55.36
55470;BME280;41334;47.872;16.384;2024-03-02T13:45:38;98190.31;;;10.73;55.70
55470;BME280;41334;47.872;16.384;2024-03-02T13:50:40;98189.91;;;10.94;55.21
55470;BME280;41334;47.872;16.384;2024-03-02T13:55:43;98184.47;;;10.82;55.43
55470;BME280;41334;47.872;16.384;2024-03-02T14:00:45;98173.78;;;10.84;55.45
55470;BME280;41334;47.872;16.384;2024-03-02T14:05:47;98166.91;;;10.58;55.76
55470;BME280;41334;47.872;16.384;2024-03-02T14:10:55;98174.78;;;10.95;55.21
55470;BME280;41334;47.872;16.384;2024-03-02T14:16:01;98178.91;;;10.82;55.39
55470;BME280;41334;47.872;16.384;2024-03-02T14:21:03;98178.38;;;10.95;55.21
55470;BME280;41334;47.872;16.384;2024-03-02T14:26:05;98178.38;;;10.95;55.15
55470;BME280;41334;47.872;16.384;2024-03-02T14:31:08;98188.50;;;11.07;54.91
55470;BME280;41334;47.872;16.384;2024-03-02T14:36:10;98187.28;;;11.05;55.16
55470;BME280;41334;47.872;16.384;2024-03-02T14:41:12;98187.22;;;11.01;54.51
55470;BME280;41334;47.872;16.384;2024-03-02T14:46:15;98188.97;;;10.67;55.35
55470;BME280;41334;47.872;16.384;2024-03-02T14:51:17;98185.97;;;10.56;55.90
55470;BME280;41334;47.872;16.384;2024-03-02T14:56:19;98186.44;;;10.39;56.00
55470;BME280;41334;47.872;16.384;2024-03-02T15:01:21;98183.81;;;10.07;57.08
55470;BME280;41334;47.872;16.384;2024-03-02T15:06:25;98198.56;;;10.27;56.51
55470;BME280;41334;47.872;16.384;2024-03-02T15:11:27;98186.09;;;9.82;57.72
55470;BME280;41334;47.872;16.384;2024-03-02T15:16:29;98185.50;;;9.92;57.71
55470;BME280;41334;47.872;16.384;2024-03-02T15:21:31;98188.38;;;9.77;58.03
55470;BME280;41334;47.872;16.384;2024-03-02T15:26:34;98185.94;;;9.40;59.41
55470;BME280;41334;47.872;16.384;2024-03-02T15:31:36;98180.69;;;9.38;59.38
55470;BME280;41334;47.872;16.384;2024-03-02T15:36:38;98183.84;;;9.37;59.34
55470;BME280;41334;47.872;16.384;2024-03-02T15:41:44;98181.00;;;9.02;60.72
55470;BME280;41334;47.872;16.384;2024-03-02T15:46:46;98184.97;;;9.01;60.44
55470;BME280;41334;47.872;16.384;2024-03-02T15:51:48;98185.50;;;8.90;61.06
55470;BME280;41334;47.872;16.384;2024-03-02T15:56:50;98177.09;;;8.71;61.93
55470;BME280;41334;47.872;16.384;2024-03-02T16:01:52;98179.84;;;8.71;62.08
55470;BME280;41334;47.872;16.384;2024-03-02T16:06:54;98179.56;;;8.32;63.47
55470;BME280;41334;47.872;16.384;2024-03-02T16:11:57;98183.50;;;8.31;63.67
55470;BME280;41334;47.872;16.384;2024-03-02T16:16:59;98184.81;;;8.22;63.91
55470;BME280;41334;47.872;16.384;2024-03-02T16:22:01;98180.44;;;8.21;63.67
55470;BME280;41334;47.872;16.384;2024-03-02T16:27:04;98186.19;;;8.00;64.15
55470;BME280;41334;47.872;16.384;2024-03-02T16:32:07;98185.31;;;7.96;63.94
55470;BME280;41334;47.872;16.384;2024-03-02T16:37:09;98195.19;;;7.81;64.76
55470;BME280;41334;47.872;16.384;2024-03-02T16:42:11;98193.91;;;7.78;64.55
55470;BME280;41334;47.872;16.384;2024-03-02T16:47:13;98208.97;;;7.53;65.58
55470;BME280;41334;47.872;16.384;2024-03-02T16:52:17;98207.59;;;7.47;65.86
55470;BME280;41334;47.872;16.384;2024-03-02T16:57:19;98199.06;;;7.40;65.69
55470;BME280;41334;47.872;16.384;2024-03-02T17:02:21;98204.34;;;7.20;66.16
55470;BME280;41334;47.872;16.384;2024-03-02T17:07:24;98204.34;;;7.20;66.17
55470;BME280;41334;47.872;16.384;2024-03-02T17:12:27;98205.28;;;7.12;66.10
55470;BME280;41334;47.872;16.384;2024-03-02T17:17:29;98204.81;;;7.10;66.03
55470;BME280;41334;47.872;16.384;2024-03-02T17:22:31;98204.22;;;6.92;67.30
55470;BME280;41334;47.872;16.384;2024-03-02T17:27:33;98203.88;;;6.94;67.47
55470;BME280;41334;47.872;16.384;2024-03-02T17:32:35;98216.56;;;6.82;67.55
55470;BME280;41334;47.872;16.384;2024-03-02T17:37:37;98214.81;;;6.78;67.68
55470;BME280;41334;47.872;16.384;2024-03-02T17:42:41;98215.97;;;6.65;68.60
55470;BME280;41334;47.872;16.384;2024-03-02T17:47:43;98224.63;;;6.63;68.56
55470;BME280;41334;47.872;16.384;2024-03-02T17:52:45;98229.44;;;6.54;68.59
55470;BME280;41334;47.872;16.384;2024-03-02T17:57:48;98238.84;;;6.41;69.25
55470;BME280;41334;47.872;16.384;2024-03-02T18:02:51;98237.84;;;6.45;67.66
55470;BME280;41334;47.872;16.384;2024-03-02T18:07:53;98247.13;;;6.28;69.37
55470;BME280;41334;47.872;16.384;2024-03-02T18:12:56;98238.69;;;6.25;69.36
55470;BME280;41334;47.872;16.384;2024-03-02T18:17:58;98246.88;;;6.21;68.81
55470;BME280;41334;47.872;16.384;2024-03-02T18:23:01;98252.97;;;6.15;69.73
55470;BME280;41334;47.872;16.384;2024-03-02T18:28:04;98250.50;;;6.13;69.72
55470;BME280;41334;47.872;16.384;2024-03-02T18:33:07;98253.16;;;6.10;68.70
55470;BME280;41334;47.872;16.384;2024-03-02T18:38:09;98253.22;;;6.01;70.02
55470;BME280;41334;47.872;16.384;2024-03-02T18:43:11;98248.03;;;5.99;69.37
55470;BME280;41334;47.872;16.384;2024-03-02T18:48:13;98241.53;;;5.95;69.69
55470;BME280;41334;47.872;16.384;2024-03-02T18:53:16;98251.22;;;5.80;70.87
55470;BME280;41334;47.872;16.384;2024-03-02T18:58:18;98247.03;;;5.83;70.30
55470;BME280;41334;47.872;16.384;2024-03-02T19:03:20;98240.84;;;5.77;70.69
55470;BME280;41334;47.872;16.384;2024-03-02T19:08:25;98241.91;;;5.64;71.56
55470;BME280;41334;47.872;16.384;2024-03-02T19:13:27;98247.50;;;5.76;70.86
55470;BME280;41334;47.872;16.384;2024-03-02T19:18:29;98248.81;;;5.79;70.26
55470;BME280;41334;47.872;16.384;2024-03-02T19:23:33;98260.41;;;5.72;70.76
55470;BME280;41334;47.872;16.384;2024-03-02T19:28:45;98247.25;;;5.69;70.06
55470;BME280;41334;47.872;16.384;2024-03-02T19:33:47;98235.50;;;5.72;70.44
55470;BME280;41334;47.872;16.384;2024-03-02T19:38:49;98232.34;;;5.62;70.51
55470;BME280;41334;47.872;16.384;2024-03-02T19:43:51;98221.97;;;5.50;71.39
55470;BME280;41334;47.872;16.384;2024-03-02T19:48:53;98231.16;;;5.42;71.67
55470;BME280;41334;47.872;16.384;2024-03-02T19:53:55;98229.34;;;5.46;70.39
55470;BME280;41334;47.872;16.384;2024-03-02T19:58:57;98238.09;;;5.48;69.84
55470;BME280;41334;47.872;16.384;2024-03-02T20:04:01;98234.38;;;5.44;70.08
55470;BME280;41334;47.872;16.384;2024-03-02T20:09:04;98231.81;;;5.39;70.46
55470;BME280;41334;47.872;16.384;2024-03-02T20:14:06;98234.72;;;5.42;70.84
55470;BME280;41334;47.872;16.384;2024-03-02T20:19:08;98233.34;;;5.57;70.27
55470;BME280;41334;47.872;16.384;2024-03-02T20:24:11;98223.84;;;5.67;69.61
55470;BME280;41334;47.872;16.384;2024-03-02T20:29:13;98222.19;;;5.66;69.81
55470;BME280;41334;47.872;16.384;2024-03-02T20:34:15;98224.75;;;5.71;69.13
55470;BME280;41334;47.872;16.384;2024-03-02T20:39:19;98218.56;;;5.74;68.84
55470;BME280;41334;47.872;16.384;2024-03-02T20:44:26;98216.16;;;5.72;69.20
55470;BME280;41334;47.872;16.384;2024-03-02T20:49:29;98211.53;;;5.76;68.72
55470;BME280;41334;47.872;16.384;2024-03-02T20:54:32;98212.03;;;5.78;67.97
55470;BME280;41334;47.872;16.384;2024-03-02T20:59:34;98214.84;;;5.70;68.33
55470;BME280;41334;47.872;16.384;2024-03-02T21:04:36;98200.28;;;5.61;68.73
55470;BME280;41334;47.872;16.384;2024-03-02T21:09:40;98198.84;;;5.54;68.75
55470;BME280;41334;47.872;16.384;2024-03-02T21:14:42;98207.03;;;5.51;68.88
55470;BME280;41334;47.872;16.384;2024-03-02T21:19:44;98197.25;;;5.53;67.70
55470;BME280;41334;47.872;16.384;2024-03-02T21:24:46;98203.50;;;5.42;69.17
55470;BME280;41334;47.872;16.384;2024-03-02T21:29:48;98202.75;;;5.33;69.07
55470;BME280;41334;47.872;16.384;2024-03-02T21:34:51;98204.75;;;5.23;69.88
55470;BME280;41334;47.872;16.384;2024-03-02T21:39:53;98192.88;;;5.23;70.49
55470;BME280;41334;47.872;16.384;2024-03-02T21:44:55;98196.50;;;5.15;70.16
55470;BME280;41334;47.872;16.384;2024-03-02T21:49:57;98186.91;;;5.12;69.75
55470;BME280;41334;47.872;16.384;2024-03-02T21:54:59;98190.69;;;5.08;70.27
55470;BME280;41334;47.872;16.384;2024-03-02T22:00:01;98182.91;;;5.01;70.35
55470;BME280;41334;47.872;16.384;2024-03-02T22:05:12;98171.41;;;4.99;70.44
55470;BME280;41334;47.872;16.384;2024-03-02T22:15:45;98176.16;;;4.90;70.26
55470;BME280;41334;47.872;16.384;2024-03-02T22:26:25;98166.59;;;4.87;70.65
55470;BME280;41334;47.872;16.384;2024-03-02T22:31:27;98164.63;;;4.88;70.37
55470;BME280;41334;47.872;16.384;2024-03-02T22:36:31;98163.22;;;4.82;70.34
55470;BME280;41334;47.872;16.384;2024-03-02T22:41:33;98163.25;;;4.73;71.12
55470;BME280;41334;47.872;16.384;2024-03-02T22:46:35;98157.09;;;4.67;70.76
55470;BME280;41334;47.872;16.384;2024-03-02T22:51:39;98155.28;;;4.71;70.07
55470;BME280;41334;47.872;16.384;2024-03-02T22:56:41;98146.38;;;4.66;70.75
55470;BME280;41334;47.872;16.384;2024-03-02T23:01:45;98155.16;;;4.59;70.84
55470;BME280;41334;47.872;16.384;2024-03-02T23:06:47;98155.84;;;4.56;71.00
55470;BME280;41334;47.872;16.384;2024-03-02T23:11:50;98154.22;;;4.55;70.91
55470;BME280;41334;47.872;16.384;2024-03-02T23:16:53;98158.16;;;4.45;71.00
55470;BME280;41334;47.872;16.384;2024-03-02T23:21:55;98143.22;;;4.46;71.26
55470;BME280;41334;47.872;16.384;2024-03-02T23:26:57;98145.41;;;4.23;72.58
55470;BME280;41334;47.872;16.384;2024-03-02T23:32:02;98153.00;;;4.35;71.20
55470;BME280;41334;47.872;16.384;2024-03-02T23:37:05;98149.88;;;4.37;71.86
55470;BME280;41334;47.872;16.384;2024-03-02T23:42:08;98139.38;;;4.30;71.29
55470;BME280;41334;47.872;16.384;2024-03-02T23:47:10;98127.34;;;4.35;70.89
55470;BME280;41334;47.872;16.384;2024-03-02T23:52:13;98134.31;;;4.32;71.48
55470;BME280;41334;47.872;16.384;2024-03-02T23:57:16;98126.88;;;4.24;72.19
